createdAt,value
2018-12-05T00:02:06.367Z,101555.77
2018-12-05T00:04:34.747Z,101559.63
2018-12-05T00:07:02.221Z,101562.59
2018-12-05T00:09:29.669Z,101552.05
2018-12-05T00:11:57.105Z,101559.21
2018-12-05T00:14:24.645Z,101560.88
2018-12-05T00:16:52.146Z,101562.42
2018-12-05T00:19:19.649Z,101564.88
2018-12-05T00:21:47.140Z,101561.81
2018-12-05T00:24:14.841Z,101553.77
2018-12-05T00:26:42.316Z,101555.51
2018-12-05T00:29:09.824Z,101550.33
2018-12-05T00:31:37.300Z,101550.33
2018-12-05T00:34:04.849Z,101547.73
2018-12-05T00:36:32.319Z,101548.14
2018-12-05T00:38:59.801Z,101555.61
2018-12-05T00:41:27.343Z,101559.40
2018-12-05T00:44:00.209Z,101548.39
2018-12-05T00:46:27.665Z,101558.00
2018-12-05T00:48:55.124Z,101559.27
2018-12-05T00:51:22.663Z,101560.08
2018-12-05T00:53:50.132Z,101554.22
2018-12-05T00:56:17.598Z,101560.59
2018-12-05T00:58:45.126Z,101561.78
2018-12-05T01:01:12.599Z,101563.45
2018-12-05T01:03:40.094Z,101568.16
2018-12-05T01:06:08.237Z,101566.05
2018-12-05T01:08:35.695Z,101570.24
2018-12-05T01:11:04.017Z,101558.82
2018-12-05T01:13:31.516Z,101557.39
2018-12-05T01:15:59.067Z,101555.38
2018-12-05T01:18:26.527Z,101549.96
2018-12-05T01:20:54.024Z,101552.72
2018-12-05T01:23:21.516Z,101553.23
2018-12-05T01:25:48.968Z,101556.61
2018-12-05T01:28:16.412Z,101560.73
2018-12-05T01:30:43.857Z,101559.30
2018-12-05T01:33:11.305Z,101558.10
2018-12-05T01:35:38.770Z,101566.66
2018-12-05T01:38:06.231Z,101572.89
2018-12-05T01:40:33.700Z,101573.74
2018-12-05T01:43:01.228Z,101574.59
2018-12-05T01:45:28.701Z,101572.08
2018-12-05T01:47:56.184Z,101572.41
2018-12-05T01:50:23.668Z,101570.78
2018-12-05T01:52:51.201Z,101568.94
2018-12-05T01:55:18.691Z,101564.75
2018-12-05T01:57:46.248Z,101573.57
2018-12-05T02:00:14.056Z,101573.98
2018-12-05T02:02:41.569Z,101571.91
2018-12-05T02:05:09.709Z,101574.91
2018-12-05T02:07:37.268Z,101574.91
2018-12-05T02:10:05.549Z,101580.28
2018-12-05T02:12:32.992Z,101580.89
2018-12-05T02:15:00.848Z,101577.92
2018-12-05T02:17:28.364Z,101576.25
2018-12-05T02:19:55.871Z,101576.08
2018-12-05T02:22:23.332Z,101575.90
2018-12-05T02:24:50.788Z,101576.86
2018-12-05T02:27:18.292Z,101583.05
2018-12-05T02:29:51.320Z,101580.05
2018-12-05T02:32:18.788Z,101588.50
2018-12-05T02:34:46.722Z,101587.17
2018-12-05T02:37:14.184Z,101589.77
2018-12-05T02:39:41.905Z,101589.77
2018-12-05T02:42:09.382Z,101596.92
2018-12-05T02:44:36.867Z,101592.32
2018-12-05T02:47:04.385Z,101591.54
2018-12-05T02:49:31.883Z,101597.09
2018-12-05T02:51:59.352Z,101592.84
2018-12-05T02:54:27.592Z,101589.94
2018-12-05T02:56:55.065Z,101590.14
2018-12-05T02:59:22.537Z,101587.62
2018-12-05T03:01:50.013Z,101590.95
2018-12-05T03:04:17.501Z,101591.36
2018-12-05T03:06:45.004Z,101594.22
2018-12-05T03:09:12.449Z,101592.95
2018-12-05T03:11:40.325Z,101595.85
2018-12-05T03:14:07.807Z,101600.52
2018-12-05T03:16:35.281Z,101601.38
2018-12-05T03:19:02.757Z,101601.89
2018-12-05T03:21:30.222Z,101602.16
2018-12-05T03:23:57.691Z,101611.45
2018-12-05T03:26:25.144Z,101608.45
2018-12-05T03:28:52.593Z,101603.75
2018-12-05T03:31:20.078Z,101595.07
2018-12-05T03:33:47.565Z,101585.88
2018-12-05T03:36:15.040Z,101587.00
2018-12-05T03:38:42.519Z,101592.05
2018-12-05T03:41:10.714Z,101592.89
2018-12-05T03:43:38.257Z,101580.11
2018-12-05T03:46:05.753Z,101585.63
2018-12-05T03:48:33.221Z,101582.63
2018-12-05T03:51:00.689Z,101579.00
2018-12-05T03:53:28.177Z,101575.22
2018-12-05T03:55:55.652Z,101579.67
2018-12-05T03:58:23.465Z,101580.59
2018-12-05T04:00:50.932Z,101581.66
2018-12-05T04:03:18.405Z,101582.12
2018-12-05T04:05:45.856Z,101590.49
2018-12-05T04:08:13.324Z,101591.42
2018-12-05T04:10:40.782Z,101591.34
2018-12-05T04:13:08.262Z,101599.72
2018-12-05T04:15:35.799Z,101596.20
2018-12-05T04:18:03.279Z,101599.86
2018-12-05T04:20:30.828Z,101596.75
2018-12-05T04:22:58.300Z,101600.57
2018-12-05T04:25:25.801Z,101603.64
2018-12-05T04:27:53.237Z,101605.89
2018-12-05T04:30:20.691Z,101610.01
2018-12-05T04:32:48.165Z,101609.41
2018-12-05T04:35:15.663Z,101609.41
2018-12-05T04:37:43.472Z,101613.59
2018-12-05T04:40:11.584Z,101610.19
2018-12-05T04:42:39.058Z,101609.95
2018-12-05T04:45:06.684Z,101607.63
2018-12-05T04:47:34.187Z,101601.19
2018-12-05T04:50:01.665Z,101605.25
2018-12-05T04:52:29.146Z,101603.11
2018-12-05T04:54:56.610Z,101608.55
2018-12-05T04:57:24.068Z,101608.42
2018-12-05T04:59:51.525Z,101608.09
2018-12-05T05:02:19.000Z,101608.09
2018-12-05T05:04:46.454Z,101607.95
2018-12-05T05:07:13.924Z,101608.48
2018-12-05T05:09:41.860Z,101605.97
2018-12-05T05:12:09.483Z,101608.80
2018-12-05T05:14:36.970Z,101609.40
2018-12-05T05:17:04.485Z,101610.89
2018-12-05T05:19:31.959Z,101617.51
2018-12-05T05:21:59.404Z,101618.89
2018-12-05T05:24:27.325Z,101623.07
2018-12-05T05:26:54.781Z,101626.56
2018-12-05T05:29:22.273Z,101633.74
2018-12-05T05:31:49.759Z,101626.11
2018-12-05T05:34:17.244Z,101625.05
2018-12-05T05:36:44.737Z,101617.41
2018-12-05T05:39:12.220Z,101614.45
2018-12-05T05:41:39.696Z,101612.78
2018-12-05T05:44:07.140Z,101614.52
2018-12-05T05:46:34.589Z,101605.75
2018-12-05T05:49:02.489Z,101604.04
2018-12-05T05:51:29.999Z,101605.38
2018-12-05T05:53:57.477Z,101611.71
2018-12-05T05:56:24.934Z,101608.08
2018-12-05T05:58:52.396Z,101608.00
2018-12-05T06:01:19.834Z,101612.25
2018-12-05T06:03:47.412Z,101612.47
2018-12-05T06:06:15.457Z,101620.95
2018-12-05T06:08:42.941Z,101618.81
2018-12-05T06:11:10.401Z,101619.74
2018-12-05T06:13:37.882Z,101626.03
2018-12-05T06:16:05.359Z,101626.56
2018-12-05T06:18:32.809Z,101621.41
2018-12-05T06:21:00.275Z,101628.30
2018-12-05T06:23:27.750Z,101631.27
2018-12-05T06:25:55.235Z,101631.48
2018-12-05T06:28:22.768Z,101637.18
2018-12-05T06:30:50.243Z,101632.39
2018-12-05T06:33:17.718Z,101637.06
2018-12-05T06:35:45.827Z,101631.21
2018-12-05T06:38:13.323Z,101622.14
2018-12-05T06:40:40.807Z,101617.18
2018-12-05T06:43:08.343Z,101625.59
2018-12-05T06:45:35.998Z,101619.89
2018-12-05T06:48:03.465Z,101621.59
2018-12-05T06:50:30.937Z,101618.44
2018-12-05T06:52:58.436Z,101624.18
2018-12-05T06:55:25.891Z,101630.77
2018-12-05T06:57:53.597Z,101628.69
2018-12-05T07:00:21.051Z,101629.50
2018-12-05T07:02:48.519Z,101624.91
2018-12-05T07:05:16.061Z,101622.80
2018-12-05T07:07:43.530Z,101627.51
2018-12-05T07:10:11.000Z,101627.58
2018-12-05T07:12:38.469Z,101630.10
2018-12-05T07:15:06.327Z,101633.80
2018-12-05T07:17:33.794Z,101636.66
2018-12-05T07:20:01.281Z,101639.42
2018-12-05T07:22:28.724Z,101640.23
2018-12-05T07:24:56.233Z,101638.38
2018-12-05T07:27:23.773Z,101641.82
2018-12-05T07:29:51.259Z,101644.53
2018-12-05T07:32:18.717Z,101643.80
2018-12-05T07:34:46.868Z,101643.87
2018-12-05T07:37:14.337Z,101640.63
2018-12-05T07:39:41.789Z,101635.99
2018-12-05T07:42:09.267Z,101630.10
2018-12-05T07:44:36.738Z,101633.78
2018-12-05T07:47:04.208Z,101636.64
2018-12-05T07:49:31.688Z,101639.50
2018-12-05T07:51:59.212Z,101634.88
2018-12-05T07:54:26.726Z,101639.30
2018-12-05T07:56:54.169Z,101641.54
2018-12-05T07:59:21.613Z,101645.44
2018-12-05T08:01:49.092Z,101645.88
2018-12-05T08:04:16.552Z,101641.30
2018-12-05T08:06:44.024Z,101643.44
2018-12-05T08:09:11.512Z,101645.89
2018-12-05T08:11:39.107Z,101643.83
2018-12-05T08:14:06.761Z,101647.13
2018-12-05T08:16:34.260Z,101640.77
2018-12-05T08:19:01.734Z,101630.28
2018-12-05T08:21:29.224Z,101636.34
2018-12-05T08:23:56.694Z,101630.56
2018-12-05T08:26:24.165Z,101630.16
2018-12-05T08:28:51.731Z,101630.54
2018-12-05T08:31:19.225Z,101629.02
2018-12-05T08:33:46.701Z,101624.98
2018-12-05T08:36:14.195Z,101630.41
2018-12-05T08:38:41.686Z,101639.91
2018-12-05T08:41:09.157Z,101639.69
2018-12-05T08:43:36.622Z,101642.88
2018-12-05T08:46:04.126Z,101641.25
2018-12-05T08:48:31.603Z,101645.92
2018-12-05T08:50:59.037Z,101639.28
2018-12-05T08:53:26.525Z,101645.19
2018-12-05T08:55:53.984Z,101640.25
2018-12-05T08:58:21.452Z,101642.50
2018-12-05T09:00:48.952Z,101637.94
2018-12-05T09:03:16.460Z,101642.77
2018-12-05T09:05:43.921Z,101652.57
2018-12-05T09:08:11.388Z,101651.75
2018-12-05T09:10:38.845Z,101657.21
2018-12-05T09:13:06.368Z,101652.42
2018-12-05T09:15:33.813Z,101655.94
2018-12-05T09:18:01.299Z,101660.31
2018-12-05T09:20:28.777Z,101656.92
2018-12-05T09:22:56.242Z,101657.44
2018-12-05T09:25:23.704Z,101651.37
2018-12-05T09:27:51.147Z,101653.09
2018-12-05T09:30:18.584Z,101644.87
2018-12-05T09:32:46.724Z,101638.82
2018-12-05T09:35:14.224Z,101642.55
2018-12-05T09:37:41.679Z,101635.78
2018-12-05T09:40:09.230Z,101632.73
2018-12-05T09:42:37.171Z,101634.92
2018-12-05T09:45:08.049Z,101636.32
2018-12-05T09:47:35.607Z,101633.08
2018-12-05T09:50:03.430Z,101634.05
2018-12-05T09:52:30.907Z,101629.61
2018-12-05T09:54:58.368Z,101620.83
2018-12-05T09:57:25.836Z,101620.66
2018-12-05T09:59:53.282Z,101620.61
2018-12-05T10:02:20.774Z,101618.03
2018-12-05T10:04:48.236Z,101613.84
2018-12-05T10:07:16.081Z,101606.23
2018-12-05T10:09:43.585Z,101603.30
2018-12-05T10:12:11.123Z,101596.52
2018-12-05T10:14:38.637Z,101600.45
2018-12-05T10:17:06.092Z,101602.37
2018-12-05T10:19:33.556Z,101595.97
2018-12-05T10:22:01.007Z,101592.81
2018-12-05T10:24:28.465Z,101580.91
2018-12-05T10:26:55.940Z,101584.35
2018-12-05T10:29:23.607Z,101575.16
2018-12-05T10:31:51.053Z,101570.70
2018-12-05T10:34:19.032Z,101568.91
2018-12-05T10:36:46.512Z,101566.44
2018-12-05T10:39:14.532Z,101565.87
2018-12-05T10:41:42.026Z,101558.77
2018-12-05T10:44:09.488Z,101565.39
2018-12-05T10:46:36.951Z,101567.12
2018-12-05T10:49:04.506Z,101565.02
2018-12-05T10:51:31.964Z,101563.47
2018-12-05T10:53:59.442Z,101562.85
2018-12-05T10:56:26.937Z,101558.42
2018-12-05T10:58:54.381Z,101559.57
2018-12-05T11:01:27.428Z,101554.05
2018-12-05T11:03:54.930Z,101551.72
2018-12-05T11:06:27.908Z,101534.41
2018-12-05T11:09:01.020Z,101529.63
2018-12-05T11:11:34.326Z,101522.44
2018-12-05T11:14:07.553Z,101522.24
2018-12-05T11:16:38.856Z,101537.90
2018-12-05T11:19:11.980Z,101528.91
2018-12-05T11:21:49.691Z,101526.80
2018-12-05T11:24:16.475Z,101528.59
2018-12-05T11:26:43.939Z,101526.00
2018-12-05T11:29:11.477Z,101523.99
2018-12-05T11:31:38.929Z,101519.89
2018-12-05T11:34:06.505Z,101515.62
2018-12-05T11:36:34.013Z,101518.20
2018-12-05T11:39:01.560Z,101513.92
2018-12-05T11:41:28.998Z,101511.95
2018-12-05T11:43:56.449Z,101514.39
2018-12-05T11:46:23.898Z,101507.67
2018-12-05T11:48:51.357Z,101500.02
2018-12-05T11:51:18.922Z,101495.13
2018-12-05T11:53:46.455Z,101488.27
2018-12-05T11:56:13.987Z,101488.03
2018-12-05T11:58:41.522Z,101492.54
2018-12-05T12:01:09.056Z,101481.64
2018-12-05T12:03:36.585Z,101481.69
2018-12-05T12:06:04.107Z,101484.27
2018-12-05T12:08:31.565Z,101471.06
2018-12-05T12:11:01.053Z,101473.23
2018-12-05T12:13:28.568Z,101466.12
2018-12-05T12:15:56.160Z,101463.06
2018-12-05T12:18:23.658Z,101463.50
2018-12-05T12:20:51.160Z,101458.33
2018-12-05T12:23:18.627Z,101459.73
2018-12-05T12:25:46.965Z,101459.86
2018-12-05T12:28:14.417Z,101459.10
2018-12-05T12:30:41.876Z,101450.52
2018-12-05T12:33:09.401Z,101441.25
2018-12-05T12:35:36.853Z,101430.21
2018-12-05T12:38:04.375Z,101430.67
2018-12-05T12:40:32.013Z,101430.29
2018-12-05T12:42:59.471Z,101436.98
2018-12-05T12:45:26.929Z,101430.37
2018-12-05T12:47:54.376Z,101426.10
2018-12-05T12:50:21.830Z,101436.89
2018-12-05T12:52:49.279Z,101430.59
2018-12-05T12:55:16.767Z,101428.05
2018-12-05T12:57:44.217Z,101428.09
2018-12-05T13:00:11.725Z,101427.63
2018-12-05T13:02:39.305Z,101420.55
2018-12-05T13:05:07.406Z,101421.78
2018-12-05T13:07:34.857Z,101421.36
2018-12-05T13:10:02.355Z,101414.59
2018-12-05T13:12:31.774Z,101417.42
2018-12-05T13:14:59.250Z,101410.99
2018-12-05T13:17:26.734Z,101407.56
2018-12-05T13:19:54.174Z,101401.52
2018-12-05T13:22:22.137Z,101396.02
2018-12-05T13:24:49.574Z,101389.59
2018-12-05T13:27:17.846Z,101389.97
2018-12-05T13:29:45.305Z,101390.35
2018-12-05T13:32:12.769Z,101391.15
2018-12-05T13:34:40.243Z,101387.22
2018-12-05T13:37:07.714Z,101386.84
2018-12-05T13:39:35.205Z,101385.87
2018-12-05T13:42:02.686Z,101383.80
2018-12-05T13:44:30.183Z,101380.41
2018-12-05T13:46:57.708Z,101378.63
2018-12-05T13:49:25.220Z,101371.73
2018-12-05T13:51:52.723Z,101362.94
2018-12-05T13:54:20.340Z,101364.83
2018-12-05T13:56:48.657Z,101352.23
2018-12-05T13:59:16.114Z,101348.02
2018-12-05T14:01:43.581Z,101345.14
2018-12-05T14:04:11.103Z,101345.73
2018-12-05T14:06:38.638Z,101340.61
2018-12-05T14:09:06.824Z,101343.23
2018-12-05T14:11:34.301Z,101338.11
2018-12-05T14:14:01.777Z,101337.66
2018-12-05T14:16:29.226Z,101336.84
2018-12-05T14:18:56.670Z,101341.08
2018-12-05T14:21:24.127Z,101335.92
2018-12-05T14:23:51.594Z,101334.02
2018-12-05T14:26:19.149Z,101344.84
2018-12-05T14:28:46.623Z,101333.05
2018-12-05T14:31:14.119Z,101327.55
2018-12-05T14:33:41.589Z,101332.02
2018-12-05T14:36:09.091Z,101320.09
2018-12-05T14:38:36.608Z,101319.16
2018-12-05T14:41:04.109Z,101320.38
2018-12-05T14:43:31.633Z,101322.45
2018-12-05T14:45:59.154Z,101322.70
2018-12-05T14:48:27.204Z,101318.14
2018-12-05T14:50:55.504Z,101313.31
2018-12-05T14:53:23.005Z,101309.52
2018-12-05T14:55:50.564Z,101314.39
2018-12-05T14:58:18.038Z,101311.44
2018-12-05T15:00:45.555Z,101309.28
2018-12-05T15:03:13.085Z,101303.69
2018-12-05T15:05:40.619Z,101297.87
2018-12-05T15:08:08.108Z,101296.38
2018-12-05T15:10:35.578Z,101300.64
2018-12-05T15:13:03.058Z,101295.34
2018-12-05T15:15:30.560Z,101286.52
2018-12-05T15:17:58.106Z,101292.33
2018-12-05T15:20:25.621Z,101288.29
2018-12-05T15:22:53.784Z,101287.77
2018-12-05T15:25:21.296Z,101284.45
2018-12-05T15:27:48.761Z,101278.86
2018-12-05T15:30:16.241Z,101272.91
2018-12-05T15:32:43.709Z,101280.46
2018-12-05T15:35:11.190Z,101274.03
2018-12-05T15:37:38.638Z,101270.64
2018-12-05T15:40:06.441Z,101268.40
2018-12-05T15:42:35.642Z,101264.13
2018-12-05T15:45:03.949Z,101255.73
2018-12-05T15:47:31.414Z,101254.83
2018-12-05T15:49:58.882Z,101245.92
2018-12-05T15:52:26.945Z,101243.80
2018-12-05T15:54:55.026Z,101242.12
2018-12-05T15:57:22.632Z,101242.22
2018-12-05T15:59:50.611Z,101231.89
2018-12-05T16:02:19.616Z,101233.91
2018-12-05T16:04:47.921Z,101227.20
2018-12-05T16:07:15.536Z,101213.65
2018-12-05T16:09:43.037Z,101199.67
2018-12-05T16:12:10.521Z,101201.92
2018-12-05T16:14:38.000Z,101195.50
2018-12-05T16:17:05.526Z,101189.64
2018-12-05T16:19:33.000Z,101186.22
2018-12-05T16:22:00.470Z,101179.88
2018-12-05T16:24:27.998Z,101167.18
2018-12-05T16:26:55.529Z,101173.69
2018-12-05T16:29:23.498Z,101172.30
2018-12-05T16:31:50.944Z,101165.97
2018-12-05T16:34:18.989Z,101165.02
2018-12-05T16:36:46.548Z,101160.34
2018-12-05T16:39:14.027Z,101164.97
2018-12-05T16:41:41.548Z,101167.98
2018-12-05T16:44:12.841Z,101153.95
2018-12-05T16:46:38.553Z,101152.69
2018-12-05T16:49:06.224Z,101152.17
2018-12-05T16:51:33.672Z,101143.31
2018-12-05T16:54:01.122Z,101136.01
2018-12-05T16:56:29.145Z,101136.89
2018-12-05T16:58:56.788Z,101131.41
2018-12-05T17:01:24.404Z,101134.59
2018-12-05T17:03:51.902Z,101124.00
2018-12-05T17:06:19.378Z,101128.67
2018-12-05T17:08:46.867Z,101123.11
2018-12-05T17:11:14.373Z,101122.78
2018-12-05T17:13:41.900Z,101121.56
2018-12-05T17:16:17.717Z,101114.48
2018-12-05T17:18:39.784Z,101112.00
2018-12-05T17:21:07.706Z,101103.14
2018-12-05T17:23:35.292Z,101103.52
2018-12-05T17:26:05.704Z,101099.44
2018-12-05T17:28:34.845Z,101100.14
2018-12-05T17:31:02.474Z,101090.02
2018-12-05T17:33:30.825Z,101089.17
2018-12-05T17:35:59.444Z,101080.31
2018-12-05T17:38:28.292Z,101085.75
2018-12-05T17:40:56.842Z,101074.78
2018-12-05T17:43:24.363Z,101081.20
2018-12-05T17:45:53.033Z,101078.20
2018-12-05T17:48:20.674Z,101077.40
2018-12-05T17:50:48.344Z,101072.34
2018-12-05T17:53:15.861Z,101073.48
2018-12-05T17:55:44.528Z,101062.55
2018-12-05T17:58:13.755Z,101065.45
2018-12-05T18:00:43.196Z,101057.41
2018-12-05T18:03:10.778Z,101064.14
2018-12-05T18:05:39.219Z,101053.93
2018-12-05T18:08:08.808Z,101057.02
2018-12-05T18:10:36.270Z,101050.59
2018-12-05T18:13:05.333Z,101037.91
2018-12-05T18:15:34.072Z,101042.92
2018-12-05T18:18:01.604Z,101045.92
2018-12-05T18:20:29.099Z,101042.12
2018-12-05T18:22:56.768Z,101040.91
2018-12-05T18:25:24.308Z,101024.41
2018-12-05T18:27:52.084Z,101018.17
2018-12-05T18:30:19.763Z,101019.43
2018-12-05T18:32:47.249Z,101020.28
2018-12-05T18:35:14.948Z,101004.66
2018-12-05T18:37:42.679Z,101008.46
2018-12-05T18:40:10.297Z,100999.70
2018-12-05T18:42:37.891Z,101000.08
2018-12-05T18:45:06.679Z,100983.16
2018-12-05T18:47:34.918Z,100992.44
2018-12-05T18:50:03.326Z,100987.38
2018-12-05T18:52:30.956Z,100983.16
2018-12-05T18:54:58.425Z,100989.06
2018-12-05T18:57:26.133Z,100975.98
2018-12-05T19:00:01.091Z,100972.62
2018-12-05T19:02:23.248Z,100972.19
2018-12-05T19:04:50.697Z,100967.17
2018-12-05T19:07:18.185Z,100961.22
2018-12-05T19:09:45.650Z,100965.91
2018-12-05T19:12:13.708Z,100949.53
2018-12-05T19:14:45.079Z,100945.70
2018-12-05T19:17:12.659Z,100937.30
2018-12-05T19:19:40.705Z,100942.83
2018-12-05T19:22:08.221Z,100941.94
2018-12-05T19:24:35.737Z,100933.97
2018-12-05T19:27:03.280Z,100928.52
2018-12-05T19:29:30.754Z,100927.25
2018-12-05T19:31:58.828Z,100927.68
2018-12-05T19:34:26.289Z,100922.63
2018-12-05T19:36:54.631Z,100919.70
2018-12-05T19:39:22.075Z,100920.92
2018-12-05T19:41:49.558Z,100910.50
2018-12-05T19:44:17.821Z,100894.00
2018-12-05T19:46:45.275Z,100898.64
2018-12-05T19:49:12.744Z,100892.39
2018-12-05T19:51:40.224Z,100891.05
2018-12-05T19:54:08.616Z,100891.44
2018-12-05T19:56:37.125Z,100889.02
2018-12-05T19:59:04.600Z,100892.78
2018-12-05T20:01:32.061Z,100889.41
2018-12-05T20:03:59.518Z,100876.36
2018-12-05T20:06:26.972Z,100875.59
2018-12-05T20:08:54.408Z,100874.71
2018-12-05T20:11:21.936Z,100876.51
2018-12-05T20:13:49.396Z,100863.42
2018-12-05T20:16:17.559Z,100859.59
2018-12-05T20:18:45.081Z,100854.14
2018-12-05T20:21:12.552Z,100850.34
2018-12-05T20:23:40.053Z,100839.41
2018-12-05T20:26:07.499Z,100856.75
2018-12-05T20:28:34.985Z,100857.55
2018-12-05T20:31:02.474Z,100844.02
2018-12-05T20:33:29.941Z,100836.52
2018-12-05T20:35:57.405Z,100838.56
2018-12-05T20:38:24.895Z,100837.79
2018-12-05T20:40:52.422Z,100838.63
2018-12-05T20:43:19.977Z,100829.39
2018-12-05T20:45:47.416Z,100823.09
2018-12-05T20:48:15.550Z,100815.95
2018-12-05T20:50:43.149Z,100819.36
2018-12-05T20:53:11.531Z,100810.91
2018-12-05T20:55:38.990Z,100801.59
2018-12-05T20:58:06.441Z,100802.05
2018-12-05T21:00:33.912Z,100799.87
2018-12-05T21:03:01.377Z,100807.12
2018-12-05T21:05:28.916Z,100794.88
2018-12-05T21:07:56.881Z,100774.97
2018-12-05T21:10:24.419Z,100781.69
2018-12-05T21:12:52.162Z,100788.09
2018-12-05T21:15:19.860Z,100781.27
2018-12-05T21:17:48.145Z,100775.30
2018-12-05T21:20:15.641Z,100767.77
2018-12-05T21:22:47.198Z,100771.17
2018-12-05T21:25:14.003Z,100769.91
2018-12-05T21:27:43.631Z,100764.03
2018-12-05T21:30:11.424Z,100761.44
2018-12-05T21:32:38.906Z,100757.22
2018-12-05T21:35:09.070Z,100760.53
2018-12-05T21:37:36.769Z,100756.38
2018-12-05T21:40:06.101Z,100761.34
2018-12-05T21:42:33.693Z,100758.77
2018-12-05T21:45:01.247Z,100755.01
2018-12-05T21:47:28.764Z,100759.16
2018-12-05T21:49:56.303Z,100757.45
2018-12-05T21:52:23.793Z,100752.45
2018-12-05T21:54:51.237Z,100749.00
2018-12-05T21:57:18.873Z,100754.45
2018-12-05T21:59:47.592Z,100748.06
2018-12-05T22:02:15.238Z,100742.61
2018-12-05T22:04:44.699Z,100741.70
2018-12-05T22:07:12.191Z,100737.16
2018-12-05T22:09:39.668Z,100743.45
2018-12-05T22:12:07.466Z,100740.05
2018-12-05T22:14:34.978Z,100747.64
2018-12-05T22:17:02.680Z,100735.41
2018-12-05T22:19:30.145Z,100745.92
2018-12-05T22:21:59.712Z,100737.97
2018-12-05T22:24:27.200Z,100742.70
2018-12-05T22:26:55.065Z,100733.81
2018-12-05T22:29:22.527Z,100729.17
2018-12-05T22:31:50.476Z,100730.02
2018-12-05T22:34:18.038Z,100730.86
2018-12-05T22:36:45.514Z,100729.17
2018-12-05T22:39:13.308Z,100724.98
2018-12-05T22:41:40.764Z,100724.53
2018-12-05T22:44:08.385Z,100721.61
2018-12-05T22:46:36.073Z,100722.84
2018-12-05T22:49:03.570Z,100723.23
2018-12-05T22:51:31.348Z,100723.20
2018-12-05T22:53:58.994Z,100718.53
2018-12-05T22:56:26.448Z,100722.33
2018-12-05T22:58:53.907Z,100715.90
2018-12-05T23:01:21.521Z,100710.06
2018-12-05T23:03:49.114Z,100710.45
2018-12-05T23:06:17.556Z,100713.80
2018-12-05T23:08:45.016Z,100704.02
2018-12-05T23:11:13.291Z,100703.22
2018-12-05T23:13:40.812Z,100698.99
2018-12-05T23:16:08.264Z,100702.79
2018-12-05T23:18:35.857Z,100695.59
2018-12-05T23:21:03.387Z,100690.53
2018-12-05T23:23:30.856Z,100689.27
2018-12-05T23:26:33.257Z,100684.20
2018-12-05T23:29:00.822Z,100685.82
2018-12-05T23:31:28.299Z,100680.79
2018-12-05T23:33:55.745Z,100674.41
2018-12-05T23:36:23.196Z,100681.92
2018-12-05T23:38:50.663Z,100682.77
2018-12-05T23:41:18.154Z,100669.28
2018-12-05T23:43:45.734Z,100668.76
2018-12-05T23:46:13.221Z,100659.45
2018-12-05T23:48:40.942Z,100652.25
2018-12-05T23:51:08.378Z,100647.64
2018-12-05T23:53:35.834Z,100649.72
2018-12-05T23:56:06.525Z,100643.39
2018-12-05T23:58:33.974Z,100628.27
